Time;durP1;ratioP1;P1;durP2;ratioP2;P2;SDS_P1;SDS_P2;PMS_P1;PMS_P2;Temp;Humidity;BMP_temperature;BMP_pressure;BME280_temperature;BME280_humidity;BME280_pressure;Samples;Min_cycle;Max_cycle;Signal;HPM_P1;HPM_P2
2023/03/28 00:01:45;;;;;;;2.63;1.50;;;3.10;86.90;;;;;;5052942;28;20029;-67
2023/03/28 00:04:11;;;;;;;1.80;1.30;;;3.10;87.30;;;;;;5052526;28;20384;-67
2023/03/28 00:06:37;;;;;;;3.45;1.60;;;3.10;87.60;;;;;;5052804;28;20025;-68
2023/03/28 00:09:07;;;;;;;3.80;1.65;;;3.10;88.00;;;;;;5052846;28;20029;-67
2023/03/28 00:11:33;;;;;;;3.17;1.90;;;3.10;88.50;;;;;;5052246;28;20054;-68
2023/03/28 00:13:59;;;;;;;3.53;1.80;;;3.10;88.50;;;;;;5052832;28;20036;-67
2023/03/28 00:16:36;;;;;;;4.90;1.98;;;3.10;88.70;;;;;;5052003;28;20087;-68
2023/03/28 00:19:10;;;;;;;3.92;1.67;;;3.10;88.90;;;;;;5052537;28;20040;-67
2023/03/28 00:21:38;;;;;;;1.95;1.75;;;3.10;88.90;;;;;;5052729;28;20083;-68
2023/03/28 00:24:09;;;;;;;3.80;2.25;;;3.10;88.90;;;;;;5052475;28;20496;-67
2023/03/28 00:26:35;;;;;;;4.15;2.03;;;3.10;88.80;;;;;;5052339;28;20097;-66
2023/03/28 00:29:03;;;;;;;3.97;1.80;;;3.00;89.00;;;;;;5052367;28;20160;-67
2023/03/28 00:31:30;;;;;;;3.65;1.85;;;3.00;89.30;;;;;;5051671;28;20529;-68
2023/03/28 00:33:56;;;;;;;3.58;2.00;;;3.00;89.50;;;;;;5052379;28;20082;-67
2023/03/28 00:36:28;;;;;;;4.15;2.00;;;3.00;89.60;;;;;;5051867;28;20029;-67
2023/03/28 00:39:00;;;;;;;;;;;3.00;89.60;;;;;;5052862;28;20025;-67
2023/03/28 00:41:31;;;;;;;3.78;1.92;;;3.00;89.90;;;;;;5051945;28;19905;-67
2023/03/28 00:43:58;;;;;;;2.80;2.00;;;3.00;89.50;;;;;;5052176;28;20099;-67
2023/03/28 00:46:38;;;;;;;4.28;1.77;;;3.00;89.60;;;;;;5051816;28;20466;-67
2023/03/28 00:49:33;;;;;;;3.40;1.95;;;3.00;90.00;;;;;;5052463;28;20021;-68
2023/03/28 00:52:03;;;;;;;5.63;2.00;;;3.00;88.90;;;;;;5043235;28;20069;-67
2023/03/28 00:54:32;;;;;;;4.32;1.90;;;2.90;88.60;;;;;;5051342;28;20036;-67
2023/03/28 00:57:01;;;;;;;2.63;1.60;;;3.00;88.40;;;;;;5052160;28;20134;-66
2023/03/28 00:59:30;;;;;;;2.67;1.83;;;3.00;88.40;;;;;;5051635;28;20025;-67
2023/03/28 01:01:56;;;;;;;4.20;1.88;;;3.00;87.60;;;;;;5052381;28;20025;-67
2023/03/28 01:04:26;;;;;;;2.13;1.60;;;3.00;87.00;;;;;;5051985;28;20102;-68
2023/03/28 01:06:55;;;;;;;2.70;1.67;;;3.00;86.60;;;;;;5051019;28;20382;-68
2023/03/28 01:09:25;;;;;;;4.25;1.77;;;2.90;86.80;;;;;;5055581;28;20033;-67
2023/03/28 01:11:55;;;;;;;3.97;2.08;;;2.90;86.60;;;;;;5056098;28;20036;-67
2023/03/28 01:14:23;;;;;;;2.85;1.70;;;2.90;86.70;;;;;;5055818;28;20036;-67
2023/03/28 01:16:50;;;;;;;4.25;1.85;;;2.90;86.60;;;;;;5055987;28;20037;-67
2023/03/28 01:19:30;;;;;;;2.80;1.70;;;2.90;86.00;;;;;;5055908;28;20032;-75
2023/03/28 01:22:40;;;;;;;3.92;1.90;;;2.90;85.80;;;;;;5055845;28;20021;-68
2023/03/28 01:25:21;;;;;;;3.60;1.33;;;2.90;86.10;;;;;;5044775;28;20453;-67
2023/03/28 01:28:27;;;;;;;2.30;1.60;;;2.90;86.00;;;;;;5055731;28;20036;-67
2023/03/28 01:31:12;;;;;;;3.78;1.52;;;2.90;85.90;;;;;;5013772;28;20025;-67
2023/03/28 01:33:58;;;;;;;3.70;1.50;;;2.90;85.70;;;;;;5013107;28;20525;-68
2023/03/28 01:36:47;;;;;;;2.75;1.42;;;2.90;85.90;;;;;;5044421;28;20485;-66
2023/03/28 01:39:38;;;;;;;3.45;1.50;;;2.90;86.10;;;;;;5055669;28;20025;-67
2023/03/28 01:42:15;;;;;;;2.55;1.75;;;2.80;86.00;;;;;;5054374;28;20035;-68
2023/03/28 01:44:46;;;;;;;5.22;1.75;;;2.80;86.30;;;;;;5054820;28;20107;-67
2023/03/28 01:47:26;;;;;;;4.53;1.65;;;2.80;86.40;;;;;;5055772;28;20051;-68
2023/03/28 01:50:17;;;;;;;3.53;1.70;;;2.80;86.30;;;;;;5055516;28;20068;-68
2023/03/28 01:52:55;;;;;;;2.60;1.33;;;2.80;86.50;;;;;;5054481;28;20108;-68
2023/03/28 01:55:37;;;;;;;2.83;1.40;;;2.80;86.20;;;;;;5054861;28;20386;-69
2023/03/28 01:58:29;;;;;;;4.20;1.50;;;2.80;86.50;;;;;;5055114;28;20033;-68
2023/03/28 02:01:06;;;;;;;3.97;1.73;;;2.80;86.40;;;;;;5055232;28;20033;-68
2023/03/28 02:03:35;;;;;;;5.63;1.70;;;2.80;85.90;;;;;;5054572;28;20497;-67
2023/03/28 02:06:06;;;;;;;5.35;1.52;;;2.80;85.90;;;;;;5054930;28;20032;-67
2023/03/28 02:08:36;;;;;;;3.72;1.42;;;2.70;85.90;;;;;;5054797;28;20031;-68
2023/03/28 02:11:02;;;;;;;4.20;1.65;;;2.70;86.10;;;;;;5054670;28;20025;-67
2023/03/28 02:13:33;;;;;;;3.67;1.50;;;2.70;86.00;;;;;;5054292;28;20035;-67
2023/03/28 02:16:00;;;;;;;3.13;1.70;;;2.70;85.90;;;;;;5055046;28;20029;-68
2023/03/28 02:18:33;;;;;;;3.58;1.60;;;2.70;85.60;;;;;;5054052;28;20040;-68
2023/03/28 02:21:06;;;;;;;2.63;1.50;;;2.70;85.40;;;;;;5055053;28;20029;-68
2023/03/28 02:23:39;;;;;;;2.92;1.50;;;2.70;85.60;;;;;;5054520;28;20033;-68
2023/03/28 02:26:06;;;;;;;3.47;1.40;;;2.70;85.80;;;;;;5054376;28;20038;-68
2023/03/28 02:28:35;;;;;;;3.10;1.45;;;2.70;85.50;;;;;;5056284;28;20032;-68
2023/03/28 02:31:03;;;;;;;2.53;1.42;;;2.70;85.30;;;;;;5063429;28;20036;-68
2023/03/28 02:33:50;;;;;;;2.88;1.55;;;2.60;85.70;;;;;;5060734;28;20116;-68
2023/03/28 02:36:18;;;;;;;3.17;1.40;;;2.60;85.40;;;;;;5070844;28;20028;-67
2023/03/28 02:38:59;;;;;;;3.40;1.55;;;2.60;85.40;;;;;;5053742;28;20419;-67
2023/03/28 02:41:58;;;;;;;4.50;2.03;;;2.60;85.60;;;;;;5054136;28;20033;-71
2023/03/28 02:44:36;;;;;;;1.80;1.50;;;2.60;85.60;;;;;;5053919;28;20080;-75
2023/03/28 02:47:32;;;;;;;2.80;1.55;;;2.60;85.80;;;;;;5054485;28;20025;-69
2023/03/28 02:50:24;;;;;;;4.22;2.40;;;2.60;86.20;;;;;;5054460;28;20025;-67
2023/03/28 02:53:07;;;;;;;4.60;1.67;;;2.60;86.00;;;;;;5054254;28;20039;-67
2023/03/28 02:55:53;;;;;;;3.20;1.33;;;2.60;86.10;;;;;;5053985;28;20029;-67
2023/03/28 02:58:39;;;;;;;3.83;1.65;;;2.60;85.70;;;;;;5054333;28;20029;-67
2023/03/28 03:01:06;;;;;;;5.28;1.60;;;2.60;85.40;;;;;;5054151;28;20028;-67
2023/03/28 03:03:35;;;;;;;3.63;1.70;;;2.60;85.40;;;;;;5053657;28;20389;-68
2023/03/28 03:06:03;;;;;;;2.20;1.33;;;2.60;85.00;;;;;;5054196;28;20339;-67
2023/03/28 03:08:29;;;;;;;4.45;1.20;;;2.60;85.00;;;;;;5053734;28;20025;-67
2023/03/28 03:10:55;;;;;;;3.90;1.40;;;2.60;84.80;;;;;;5053704;28;20060;-68
2023/03/28 03:13:21;;;;;;;2.80;1.40;;;2.60;84.70;;;;;;5052798;28;20025;-67
2023/03/28 03:15:46;;;;;;;4.03;1.60;;;2.60;84.80;;;;;;5054800;28;20035;-67
2023/03/28 03:18:12;;;;;;;3.50;1.17;;;2.60;84.50;;;;;;5055729;28;20028;-67
2023/03/28 03:20:39;;;;;;;3.53;1.23;;;2.60;84.40;;;;;;5058470;28;20481;-67
2023/03/28 03:23:06;;;;;;;4.25;1.42;;;2.60;83.80;;;;;;5060816;28;20037;-67
2023/03/28 03:25:33;;;;;;;2.00;1.17;;;2.60;83.40;;;;;;5053674;28;20067;-67
2023/03/28 03:27:59;;;;;;;3.58;1.15;;;2.60;83.50;;;;;;5053900;28;20033;-67
2023/03/28 03:30:25;;;;;;;3.40;1.35;;;2.60;83.40;;;;;;5052725;28;20036;-67
2023/03/28 03:32:51;;;;;;;4.32;1.42;;;2.60;83.10;;;;;;5052653;28;20021;-67
2023/03/28 03:35:18;;;;;;;2.78;1.38;;;2.60;83.00;;;;;;5053567;28;20076;-67
2023/03/28 03:37:44;;;;;;;5.57;1.30;;;2.60;82.90;;;;;;5051636;28;20036;-68
2023/03/28 03:40:11;;;;;;;2.38;1.10;;;2.60;82.50;;;;;;5052025;28;20029;-67
2023/03/28 03:42:37;;;;;;;3.28;1.30;;;2.60;82.20;;;;;;5051621;28;20351;-68
2023/03/28 03:45:04;;;;;;;4.95;1.40;;;2.60;81.60;;;;;;5052982;28;20106;-67
2023/03/28 03:47:30;;;;;;;3.08;1.33;;;2.60;81.20;;;;;;5053064;28;20029;-74
2023/03/28 03:49:55;;;;;;;2.63;1.10;;;2.60;81.40;;;;;;5052687;28;20453;-68
2023/03/28 03:52:21;;;;;;;2.70;1.05;;;2.60;81.10;;;;;;5053424;28;20369;-68
2023/03/28 03:54:46;;;;;;;2.72;1.00;;;2.60;80.70;;;;;;5052398;28;20552;-68
2023/03/28 03:57:12;;;;;;;5.03;1.15;;;2.60;80.50;;;;;;5053025;28;20108;-68
2023/03/28 03:59:38;;;;;;;3.95;0.95;;;2.60;80.50;;;;;;5052261;28;20384;-68
2023/03/28 04:02:03;;;;;;;2.83;1.25;;;2.60;79.90;;;;;;5051832;28;20028;-67
2023/03/28 04:04:29;;;;;;;4.43;1.23;;;2.60;79.90;;;;;;5053060;28;20036;-71
2023/03/28 04:06:58;;;;;;;4.20;1.08;;;2.60;79.80;;;;;;5052660;28;20021;-68
2023/03/28 04:09:26;;;;;;;3.20;1.27;;;2.60;79.40;;;;;;5052795;28;20111;-68
2023/03/28 04:11:54;;;;;;;1.92;1.05;;;2.60;79.40;;;;;;5052093;28;20587;-68
2023/03/28 04:14:21;;;;;;;2.50;1.15;;;2.60;79.30;;;;;;5052813;28;20060;-67
2023/03/28 04:16:49;;;;;;;4.05;1.20;;;2.60;79.20;;;;;;5052484;28;20052;-67
2023/03/28 04:19:16;;;;;;;3.40;1.23;;;2.60;78.90;;;;;;5052680;28;20049;-67
2023/03/28 04:21:46;;;;;;;2.03;0.85;;;2.60;78.40;;;;;;5052251;28;20153;-67
2023/03/28 04:24:14;;;;;;;3.30;1.52;;;2.60;78.10;;;;;;5052990;28;20033;-68
2023/03/28 04:26:40;;;;;;;4.13;1.35;;;2.60;77.90;;;;;;5052400;28;20028;-67
2023/03/28 04:29:08;;;;;;;1.77;1.00;;;2.60;77.70;;;;;;5052359;28;20033;-68
2023/03/28 04:31:38;;;;;;;4.00;1.30;;;2.60;77.70;;;;;;5052295;28;20465;-72
2023/03/28 04:34:05;;;;;;;2.67;1.20;;;2.60;77.90;;;;;;5052535;28;20044;-67
2023/03/28 04:36:31;;;;;;;4.85;1.52;;;2.60;78.40;;;;;;5051928;28;20029;-68
2023/03/28 04:39:00;;;;;;;2.45;1.65;;;2.60;79.20;;;;;;5051807;28;20025;-67
2023/03/28 04:41:27;;;;;;;3.72;1.92;;;2.60;80.00;;;;;;5052108;28;20068;-67
2023/03/28 04:43:52;;;;;;;5.38;2.50;;;2.50;82.10;;;;;;5051486;28;20344;-68
2023/03/28 04:46:18;;;;;;;3.85;2.00;;;2.50;83.50;;;;;;5052403;28;20436;-67
2023/03/28 04:48:45;;;;;;;3.40;2.47;;;2.50;84.80;;;;;;5051862;28;20028;-67
2023/03/28 04:51:11;;;;;;;4.22;2.30;;;2.50;85.50;;;;;;5052262;28;20079;-66
2023/03/28 04:53:37;;;;;;;2.65;1.92;;;2.50;86.00;;;;;;5050745;28;20428;-67
2023/03/28 04:56:03;;;;;;;2.42;2.05;;;2.50;86.10;;;;;;5051104;28;20059;-67
2023/03/28 04:58:28;;;;;;;4.05;2.00;;;2.50;86.20;;;;;;5051052;28;20021;-68
2023/03/28 05:00:54;;;;;;;3.08;2.05;;;2.50;86.60;;;;;;5050370;28;20104;-68
2023/03/28 05:03:22;;;;;;;3.15;2.17;;;2.50;86.50;;;;;;5050941;28;20029;-70
2023/03/28 05:05:51;;;;;;;6.50;1.73;;;2.50;86.20;;;;;;5050891;28;20082;-66
2023/03/28 05:08:19;;;;;;;4.85;1.90;;;2.50;86.10;;;;;;5052122;28;20163;-68
2023/03/28 05:10:45;;;;;;;2.58;1.80;;;2.50;86.00;;;;;;5051380;28;20029;-67
2023/03/28 05:13:12;;;;;;;7.93;2.53;;;2.60;86.10;;;;;;5052435;28;20060;-67
2023/03/28 05:15:37;;;;;;;3.03;1.67;;;2.60;86.20;;;;;;5051705;28;20381;-74
2023/03/28 05:18:04;;;;;;;4.05;1.60;;;2.60;85.80;;;;;;5052700;28;20025;-67
2023/03/28 05:20:30;;;;;;;6.60;1.40;;;2.60;85.80;;;;;;5052186;28;20030;-67
2023/03/28 05:22:57;;;;;;;2.47;1.50;;;2.70;85.40;;;;;;5051874;28;20374;-67
2023/03/28 05:25:23;;;;;;;4.00;1.60;;;2.70;85.20;;;;;;5050837;28;20032;-67
2023/03/28 05:27:49;;;;;;;3.83;1.52;;;2.70;85.00;;;;;;5051499;28;20029;-67
2023/03/28 05:30:15;;;;;;;6.22;1.65;;;2.80;84.50;;;;;;5051794;28;20083;-67
2023/03/28 05:32:40;;;;;;;4.60;1.30;;;2.80;84.30;;;;;;5051507;28;20454;-68
2023/03/28 05:35:08;;;;;;;1.70;1.60;;;2.80;84.40;;;;;;5051887;28;20021;-67
2023/03/28 05:37:35;;;;;;;3.60;1.35;;;2.80;84.40;;;;;;5051987;28;20040;-67
2023/03/28 05:40:06;;;;;;;3.05;1.50;;;2.80;84.60;;;;;;5051363;28;20044;-67
2023/03/28 05:42:35;;;;;;;4.05;1.85;;;2.90;84.40;;;;;;5051864;28;20078;-67
2023/03/28 05:45:02;;;;;;;4.57;1.65;;;2.90;84.50;;;;;;5051194;28;20041;-67
2023/03/28 05:47:28;;;;;;;3.38;1.50;;;3.00;84.30;;;;;;5051545;28;20466;-67
2023/03/28 05:49:54;;;;;;;6.97;1.70;;;3.10;84.50;;;;;;5051396;28;20120;-67
2023/03/28 05:52:20;;;;;;;2.85;1.35;;;3.10;84.30;;;;;;5051748;28;20116;-68
2023/03/28 05:54:45;;;;;;;3.67;1.80;;;3.20;84.10;;;;;;5054282;28;20037;-68
2023/03/28 05:57:11;;;;;;;5.72;1.92;;;3.20;83.80;;;;;;5055135;28;20378;-68
2023/03/28 05:59:39;;;;;;;3.45;1.35;;;3.30;83.20;;;;;;5055347;28;20027;-68
2023/03/28 06:02:08;;;;;;;8.18;1.83;;;3.30;82.60;;;;;;5055123;28;20112;-68
2023/03/28 06:04:34;;;;;;;4.45;2.00;;;3.40;82.30;;;;;;5055174;28;20124;-68
2023/03/28 06:07:00;;;;;;;3.33;1.90;;;3.50;82.00;;;;;;5054319;28;20791;-67
2023/03/28 06:09:30;;;;;;;2.63;1.55;;;3.50;81.20;;;;;;5053971;28;20338;-67
2023/03/28 06:11:58;;;;;;;6.40;2.25;;;3.50;80.50;;;;;;5054436;28;20029;-69
2023/03/28 06:14:24;;;;;;;6.75;1.98;;;3.60;80.30;;;;;;5055056;28;20035;-67
2023/03/28 06:16:50;;;;;;;3.83;1.92;;;3.60;80.00;;;;;;5054414;28;20416;-67
2023/03/28 06:19:16;;;;;;;3.50;1.90;;;3.70;80.00;;;;;;5054995;28;20043;-67
2023/03/28 06:21:42;;;;;;;2.70;1.55;;;3.70;78.70;;;;;;5054648;28;20032;-68
2023/03/28 06:24:09;;;;;;;4.30;1.77;;;3.60;78.30;;;;;;5054661;28;20136;-68
2023/03/28 06:26:35;;;;;;;7.30;1.83;;;3.60;79.00;;;;;;5054731;28;20033;-67
2023/03/28 06:29:01;;;;;;;5.65;1.70;;;3.60;78.20;;;;;;5054200;28;20075;-68
2023/03/28 06:31:26;;;;;;;3.90;1.60;;;3.60;78.10;;;;;;5053829;28;20053;-67
2023/03/28 06:33:52;;;;;;;4.70;1.40;;;3.60;77.40;;;;;;5053047;28;20040;-68
2023/03/28 06:36:18;;;;;;;4.93;1.60;;;3.60;76.70;;;;;;5054876;28;20033;-68
2023/03/28 06:38:44;;;;;;;3.20;1.45;;;3.70;77.10;;;;;;5054091;28;20065;-69
2023/03/28 06:41:10;;;;;;;5.57;1.88;;;3.70;76.10;;;;;;5054670;28;20025;-68
2023/03/28 06:43:36;;;;;;;5.07;1.80;;;3.70;75.80;;;;;;5054332;28;20041;-68
2023/03/28 06:46:03;;;;;;;8.10;2.15;;;3.80;76.40;;;;;;5054149;28;20044;-68
2023/03/28 06:48:30;;;;;;;3.58;1.52;;;3.90;75.60;;;;;;5054580;28;20036;-69
2023/03/28 06:50:59;;;;;;;8.93;1.73;;;3.90;73.10;;;;;;5054138;28;20025;-69
2023/03/28 06:53:25;;;;;;;4.38;1.50;;;4.10;73.30;;;;;;5054362;28;20041;-69
2023/03/28 06:55:52;;;;;;;6.22;2.03;;;4.30;73.10;;;;;;5054092;28;20031;-69
2023/03/28 06:58:18;;;;;;;3.53;1.52;;;4.50;69.90;;;;;;5054260;28;20479;-68
2023/03/28 07:00:44;;;;;;;3.63;1.17;;;4.70;69.40;;;;;;5053580;28;20068;-68
2023/03/28 07:03:10;;;;;;;3.35;1.60;;;4.90;68.40;;;;;;5054268;28;20048;-67
2023/03/28 07:05:41;;;;;;;3.78;1.77;;;5.20;67.70;;;;;;5054371;28;20017;-68
2023/03/28 07:08:08;;;;;;;4.07;1.77;;;5.30;66.80;;;;;;5053493;28;20470;-68
2023/03/28 07:10:35;;;;;;;3.70;1.38;;;5.40;66.00;;;;;;5054153;28;20033;-67
2023/03/28 07:13:01;;;;;;;3.83;1.75;;;5.60;65.20;;;;;;5053534;28;20025;-67
2023/03/28 07:15:27;;;;;;;2.28;1.50;;;5.70;65.30;;;;;;5053769;28;20466;-67
2023/03/28 07:17:53;;;;;;;3.60;1.45;;;5.90;65.10;;;;;;5053353;28;20067;-67
2023/03/28 07:20:19;;;;;;;4.60;1.65;;;6.20;63.70;;;;;;5053881;28;20025;-68
2023/03/28 07:22:45;;;;;;;3.90;1.73;;;6.20;63.40;;;;;;5053694;28;20020;-74
2023/03/28 07:25:11;;;;;;;3.38;1.55;;;6.20;62.60;;;;;;5053657;28;20509;-68
2023/03/28 07:27:37;;;;;;;4.70;1.83;;;6.50;62.30;;;;;;5053708;28;20028;-67
2023/03/28 07:30:04;;;;;;;3.40;1.30;;;7.10;61.50;;;;;;5053418;28;20025;-68
2023/03/28 07:32:30;;;;;;;8.02;1.80;;;7.80;58.80;;;;;;5052474;28;20104;-68
2023/03/28 07:34:56;;;;;;;4.70;1.30;;;7.70;57.90;;;;;;5052974;28;20177;-67
2023/03/28 07:37:21;;;;;;;6.70;1.70;;;8.00;57.10;;;;;;5053059;28;20029;-68
2023/03/28 07:39:47;;;;;;;2.30;1.40;;;7.90;57.10;;;;;;5053022;28;20032;-68
2023/03/28 07:42:14;;;;;;;2.70;1.50;;;8.20;57.60;;;;;;5053434;28;20033;-67
2023/03/28 07:44:40;;;;;;;2.75;1.40;;;8.40;56.60;;;;;;5052984;28;20405;-68
2023/03/28 07:47:06;;;;;;;4.70;1.60;;;8.30;56.10;;;;;;5052997;28;20645;-67
2023/03/28 07:49:32;;;;;;;3.15;1.50;;;8.60;56.00;;;;;;5053085;28;20039;-68
2023/03/28 07:51:58;;;;;;;2.97;1.55;;;8.60;54.90;;;;;;5051535;28;20029;-68
2023/03/28 07:54:25;;;;;;;4.20;1.63;;;8.00;55.60;;;;;;5053077;28;20043;-68
2023/03/28 07:56:51;;;;;;;4.32;1.70;;;7.20;57.30;;;;;;5052717;28;20461;-68
2023/03/28 07:59:16;;;;;;;3.17;1.50;;;7.10;58.10;;;;;;5052931;28;20021;-68
2023/03/28 08:01:44;;;;;;;4.47;1.60;;;6.90;58.90;;;;;;5053089;28;20100;-68
2023/03/28 08:04:11;;;;;;;6.30;1.65;;;7.10;58.00;;;;;;5052561;28;20435;-67
2023/03/28 08:06:38;;;;;;;4.45;1.77;;;6.90;59.00;;;;;;5053135;28;20029;-68
2023/03/28 08:09:08;;;;;;;7.78;1.63;;;6.70;61.20;;;;;;5052398;28;20029;-68
2023/03/28 08:11:35;;;;;;;4.10;1.50;;;6.40;64.30;;;;;;5052954;28;20025;-68
2023/03/28 08:14:02;;;;;;;5.70;1.50;;;6.10;67.50;;;;;;5052281;28;20363;-68
2023/03/28 08:16:28;;;;;;;7.72;1.80;;;5.70;68.00;;;;;;5051975;28;20476;-68
2023/03/28 08:18:54;;;;;;;4.00;1.42;;;5.50;68.60;;;;;;5050885;28;20052;-68
2023/03/28 08:21:20;;;;;;;5.70;1.67;;;5.40;69.30;;;;;;5051712;28;20477;-68
2023/03/28 08:23:46;;;;;;;3.40;1.58;;;5.30;69.10;;;;;;5050826;28;20112;-67
2023/03/28 08:26:12;;;;;;;4.40;2.15;;;5.20;70.20;;;;;;5051821;28;20032;-68
2023/03/28 08:28:38;;;;;;;4.70;1.80;;;5.10;70.30;;;;;;5052536;28;20054;-68
2023/03/28 08:31:12;;;;;;;3.33;1.58;;;5.00;71.20;;;;;;5052059;28;20024;-67
2023/03/28 08:33:40;;;;;;;3.30;1.75;;;4.90;71.80;;;;;;5052626;28;20465;-68
2023/03/28 08:36:08;;;;;;;6.63;2.10;;;4.90;72.20;;;;;;5052900;28;20038;-69
2023/03/28 08:38:34;;;;;;;4.50;1.85;;;4.80;72.70;;;;;;5053817;28;20051;-68
2023/03/28 08:41:20;;;;;;;7.22;2.03;;;4.80;73.20;;;;;;5052793;28;20021;-68
2023/03/28 08:43:55;;;;;;;4.93;2.38;;;4.90;74.30;;;;;;5052275;28;20041;-68
2023/03/28 08:46:23;;;;;;;6.80;2.35;;;4.90;74.40;;;;;;5052309;28;20032;-68
2023/03/28 08:48:50;;;;;;;7.40;2.55;;;4.90;75.30;;;;;;5051032;28;20450;-68
2023/03/28 08:51:19;;;;;;;4.43;2.15;;;4.90;73.40;;;;;;5052330;28;20017;-68
2023/03/28 08:53:50;;;;;;;4.47;1.15;;;5.00;73.20;;;;;;5052661;28;20037;-69
2023/03/28 08:56:16;;;;;;;;;;;4.90;68.10;;;;;;5055111;28;20174;-68
2023/03/28 08:59:06;;;;;;;5.65;1.10;;;5.00;62.50;;;;;;5056930;28;19935;-68
2023/03/28 09:01:32;;;;;;;6.55;1.17;;;5.00;60.80;;;;;;5057253;28;20053;-68
2023/03/28 09:04:01;;;;;;;7.00;0.98;;;5.10;60.10;;;;;;5056182;28;20102;-68
2023/03/28 09:06:38;;;;;;;3.85;1.25;;;5.10;59.00;;;;;;5056623;28;20048;-67
2023/03/28 09:09:13;;;;;;;2.08;1.00;;;5.10;58.90;;;;;;5052626;28;20481;-67
2023/03/28 09:11:39;;;;;;;7.07;1.13;;;5.10;59.50;;;;;;5052113;28;20030;-68
2023/03/28 09:14:12;;;;;;;3.08;1.00;;;5.10;60.40;;;;;;5051840;28;20047;-68
2023/03/28 09:16:59;;;;;;;3.80;1.10;;;5.10;60.10;;;;;;5052193;28;20052;-68
2023/03/28 09:19:42;;;;;;;5.30;1.00;;;5.10;60.70;;;;;;5052368;28;20051;-67
2023/03/28 09:22:51;;;;;;;3.75;0.80;;;5.00;61.30;;;;;;5051930;28;20118;-68
2023/03/28 09:25:22;;;;;;;3.97;1.17;;;4.90;60.30;;;;;;5051856;28;20021;-67
2023/03/28 09:27:53;;;;;;;1.88;1.00;;;4.80;61.30;;;;;;5052266;28;20025;-67
2023/03/28 09:30:22;;;;;;;;;;;4.70;60.40;;;;;;5056483;28;20025;-67
2023/03/28 09:32:51;;;;;;;3.30;0.80;;;4.70;60.30;;;;;;5056041;28;20006;-68
2023/03/28 09:35:22;;;;;;;3.08;1.08;;;4.80;60.90;;;;;;5055416;28;20068;-69
2023/03/28 09:37:52;;;;;;;3.85;1.40;;;4.90;61.50;;;;;;5055891;28;20393;-69
2023/03/28 09:40:23;;;;;;;2.88;0.88;;;5.20;62.40;;;;;;5055380;28;20035;-68
2023/03/28 09:43:01;;;;;;;5.93;1.38;;;5.50;61.00;;;;;;5055451;28;20469;-68
2023/03/28 09:46:12;;;;;;;2.85;1.15;;;5.80;61.70;;;;;;5055176;28;20110;-68
2023/03/28 09:48:39;;;;;;;7.80;1.45;;;5.90;64.60;;;;;;5054245;28;20036;-67
2023/03/28 09:51:12;;;;;;;2.70;1.35;;;5.90;66.30;;;;;;5055278;28;20119;-68
2023/03/28 09:53:37;;;;;;;5.63;1.65;;;5.80;67.30;;;;;;5055664;28;20166;-68
2023/03/28 09:56:07;;;;;;;3.55;1.30;;;5.80;67.50;;;;;;5055114;28;20483;-68
2023/03/28 09:59:20;;;;;;;8.00;1.45;;;5.80;67.90;;;;;;5055760;28;20036;-68
2023/03/28 10:01:49;;;;;;;8.52;1.27;;;5.90;67.10;;;;;;5053178;28;20033;-67
2023/03/28 10:04:18;;;;;;;4.10;1.30;;;5.90;66.20;;;;;;5035866;28;20055;-68
2023/03/28 10:06:45;;;;;;;3.15;0.88;;;6.00;65.90;;;;;;5052973;28;20037;-68
2023/03/28 10:09:19;;;;;;;5.32;1.48;;;6.00;65.70;;;;;;5052312;28;20393;-67
2023/03/28 10:11:55;;;;;;;3.60;1.45;;;6.00;65.50;;;;;;5052774;28;20043;-68
2023/03/28 10:14:38;;;;;;;6.43;1.40;;;6.10;63.00;;;;;;5052292;28;20102;-68
2023/03/28 10:17:11;;;;;;;4.38;1.20;;;6.10;61.80;;;;;;5052462;28;20429;-67
2023/03/28 10:19:40;;;;;;;4.60;1.33;;;5.90;60.90;;;;;;5052786;28;20515;-69
2023/03/28 10:22:11;;;;;;;5.43;1.30;;;5.80;60.00;;;;;;5052293;28;20029;-68
2023/03/28 10:24:38;;;;;;;4.97;1.35;;;5.60;59.30;;;;;;5052795;28;20029;-67
2023/03/28 10:27:22;;;;;;;4.63;0.93;;;5.50;59.30;;;;;;5052178;28;20390;-67
2023/03/28 10:29:52;;;;;;;4.40;0.90;;;5.30;56.30;;;;;;5050541;28;20105;-68
2023/03/28 10:32:29;;;;;;;5.93;0.77;;;5.20;52.90;;;;;;5040319;28;20033;-67
2023/03/28 10:35:22;;;;;;;1.67;1.08;;;5.00;54.40;;;;;;5054309;28;20041;-68
2023/03/28 10:37:48;;;;;;;2.78;1.25;;;5.10;55.70;;;;;;5054419;28;20041;-68
2023/03/28 10:40:17;;;;;;;4.60;1.27;;;5.20;56.60;;;;;;5053927;28;20045;-68
2023/03/28 10:42:44;;;;;;;2.42;0.98;;;5.50;57.00;;;;;;5054585;28;20139;-68
2023/03/28 10:45:25;;;;;;;4.38;1.30;;;5.70;56.60;;;;;;5053908;28;20136;-67
2023/03/28 10:47:55;;;;;;;5.27;1.50;;;5.80;54.70;;;;;;5054222;28;20462;-68
2023/03/28 10:50:34;;;;;;;3.20;1.23;;;6.00;54.90;;;;;;5054228;28;20057;-67
2023/03/28 10:53:38;;;;;;;2.60;1.25;;;6.20;53.20;;;;;;5054035;28;20660;-68
2023/03/28 10:56:37;;;;;;;4.80;1.40;;;6.40;52.80;;;;;;5053725;28;20033;-68
2023/03/28 10:59:22;;;;;;;4.07;1.52;;;6.50;51.70;;;;;;5053740;28;20029;-67
2023/03/28 11:02:29;;;;;;;3.05;1.10;;;6.60;52.10;;;;;;5054267;28;20025;-67
2023/03/28 11:05:16;;;;;;;2.85;1.20;;;6.70;52.60;;;;;;5054322;28;20166;-68
2023/03/28 11:07:51;;;;;;;5.22;1.25;;;6.80;51.20;;;;;;5054250;28;20343;-68
2023/03/28 11:10:49;;;;;;;2.65;1.33;;;6.70;51.30;;;;;;5053213;28;20033;-67
2023/03/28 11:14:02;;;;;;;4.47;1.33;;;6.80;50.70;;;;;;5052854;28;20041;-68
2023/03/28 11:16:55;;;;;;;3.30;1.13;;;6.80;51.30;;;;;;5011779;28;20029;-68
2023/03/28 11:19:42;;;;;;;3.88;1.45;;;6.70;51.80;;;;;;5011374;28;20053;-68
2023/03/28 11:22:16;;;;;;;3.38;1.30;;;6.80;53.90;;;;;;5011044;28;20045;-68
2023/03/28 11:24:59;;;;;;;5.95;1.63;;;6.90;56.20;;;;;;5011782;28;20426;-68
2023/03/28 11:27:30;;;;;;;2.97;1.50;;;6.90;58.10;;;;;;5011289;28;20041;-68
2023/03/28 11:30:19;;;;;;;9.63;1.67;;;6.90;58.40;;;;;;5011489;28;20033;-67
2023/03/28 11:33:08;;;;;;;2.58;1.23;;;6.80;58.80;;;;;;5011860;28;20164;-69
2023/03/28 11:35:46;;;;;;;5.30;1.70;;;6.80;58.10;;;;;;5002133;28;20056;-68
2023/03/28 11:38:21;;;;;;;2.17;0.90;;;6.70;60.10;;;;;;5010974;28;20157;-68
2023/03/28 11:40:53;;;;;;;5.40;1.25;;;6.50;62.20;;;;;;5009357;28;20066;-67
2023/03/28 11:43:54;;;;;;;3.92;1.30;;;6.40;63.90;;;;;;4991296;28;20054;-68
2023/03/28 11:46:28;;;;;;;2.17;1.20;;;6.40;64.70;;;;;;4976453;28;20029;-67
2023/03/28 11:49:07;;;;;;;5.90;1.60;;;6.30;64.10;;;;;;5033345;28;20029;-68
2023/03/28 11:51:40;;;;;;;2.67;1.35;;;6.10;65.40;;;;;;5032699;28;20025;-68
2023/03/28 11:54:08;;;;;;;5.05;1.60;;;6.00;67.30;;;;;;5032740;28;20034;-69
2023/03/28 11:57:18;;;;;;;3.13;1.63;;;5.80;68.50;;;;;;5033026;28;20053;-67
2023/03/28 11:59:52;;;;;;;5.20;1.42;;;5.50;71.30;;;;;;5028377;28;20490;-68
2023/03/28 12:02:29;;;;;;;5.35;1.42;;;5.30;72.90;;;;;;5032724;28;20026;-68
2023/03/28 12:05:14;;;;;;;4.80;2.03;;;5.20;73.40;;;;;;5033232;28;20049;-68
2023/03/28 12:07:58;;;;;;;5.63;1.90;;;5.30;75.40;;;;;;5033123;28;20098;-68
2023/03/28 12:10:35;;;;;;;3.88;1.42;;;5.50;75.40;;;;;;5032740;28;20033;-68
2023/03/28 12:13:15;;;;;;;3.22;1.45;;;5.60;71.30;;;;;;5033215;28;20029;-68
2023/03/28 12:15:51;;;;;;;3.53;1.67;;;5.80;69.50;;;;;;5032218;28;20541;-68
2023/03/28 12:18:31;;;;;;;2.15;1.40;;;5.90;66.20;;;;;;5032625;28;20022;-68
2023/03/28 12:20:59;;;;;;;3.97;1.35;;;5.90;65.10;;;;;;5033018;28;20091;-68
2023/03/28 12:23:46;;;;;;;4.70;1.40;;;6.00;63.80;;;;;;5031227;28;20382;-68
2023/03/28 12:26:18;;;;;;;8.95;1.40;;;6.10;60.90;;;;;;5050884;28;20021;-68
2023/03/28 12:28:52;;;;;;;1.92;1.10;;;6.30;61.80;;;;;;5052720;28;20393;-68
2023/03/28 12:31:34;;;;;;;3.33;1.40;;;6.40;56.00;;;;;;5052497;28;20029;-67
2023/03/28 12:34:22;;;;;;;2.92;1.17;;;6.60;53.30;;;;;;5052659;28;20041;-68
2023/03/28 12:36:54;;;;;;;4.15;1.55;;;6.70;52.50;;;;;;5052930;28;20032;-67
2023/03/28 12:39:33;;;;;;;4.97;1.40;;;6.70;50.40;;;;;;5052318;28;20162;-67
2023/03/28 12:42:08;;;;;;;4.28;1.27;;;6.70;51.00;;;;;;5052431;28;20491;-67
2023/03/28 12:45:15;;;;;;;6.80;1.30;;;6.80;52.50;;;;;;5050923;28;20187;-67
2023/03/28 12:47:46;;;;;;;4.20;1.30;;;6.80;50.80;;;;;;5010546;28;20463;-67
2023/03/28 12:50:31;;;;;;;3.92;1.13;;;6.80;49.90;;;;;;5046626;28;20075;-68
2023/03/28 12:52:58;;;;;;;3.38;1.30;;;6.80;48.90;;;;;;5052189;28;20541;-68
2023/03/28 12:55:23;;;;;;;3.67;1.00;;;6.80;50.60;;;;;;5051730;28;20429;-68
2023/03/28 12:57:50;;;;;;;4.78;0.95;;;6.70;54.00;;;;;;5052520;28;20025;-67
2023/03/28 13:00:28;;;;;;;2.28;1.23;;;6.50;53.60;;;;;;5051821;28;20017;-67
2023/03/28 13:03:25;;;;;;;5.00;1.40;;;6.50;53.40;;;;;;5054178;28;20413;-67
2023/03/28 13:06:25;;;;;;;5.13;1.60;;;6.50;53.20;;;;;;5056216;28;20025;-68
2023/03/28 13:09:09;;;;;;;2.78;1.08;;;6.60;50.90;;;;;;5055967;28;20029;-67
2023/03/28 13:11:50;;;;;;;6.47;1.20;;;6.60;48.80;;;;;;5055774;28;20065;-67
2023/03/28 13:14:41;;;;;;;2.17;1.10;;;6.60;46.80;;;;;;5055684;28;20048;-68
2023/03/28 13:17:20;;;;;;;6.13;1.20;;;6.60;45.80;;;;;;5056118;28;20032;-68
2023/03/28 13:19:52;;;;;;;3.55;1.10;;;6.60;43.90;;;;;;5056087;28;20051;-67
2023/03/28 13:22:35;;;;;;;2.63;0.93;;;6.60;43.50;;;;;;5055557;28;20025;-67
2023/03/28 13:25:24;;;;;;;4.20;1.20;;;6.60;43.60;;;;;;5055974;28;20036;-67
2023/03/28 13:27:53;;;;;;;2.60;1.10;;;6.60;44.50;;;;;;5055877;28;20043;-67